Armstrong Mills, Ohio
Current Conditions -  °F | °C
As of 3:53 AM on Wednesday 22 Oct 2014 (Local Time) from KHLG Reporting Station
Overcast Overcast  
Wind Chill: 42°   Ceiling: 900
Heat Index: 47°   Visibility: 10mi
Dew Point: 44°   Wind: 12mph
Humidity: 90%   Direction: 340°NNW
Pressure: 30.05"   Gusts: NA
Location:  39.9375°N, 80.8976°W
Report Text: KHLG 220753Z AUTO 34010KT 10SM OVC009 08/07 A3005 RMK AO2 RAE07 CIG 007V013 SLP182 P0001 T00830067
Loading
Personal Weather Stations






























Interactive Weather Map
Tropical Storm Tracking
New forecast layout! Learn more

10-Day Weather Forecast

Advertisements
Track Severe Weather on mobile